Petrolia, California
Current Conditions -  °F | °C
As of 11:10 PM on Friday 24 Oct 2014 (Local Time) from KFOT Reporting Station
Scattered Clouds Scattered Clouds  
Wind Chill: 64°   Ceiling: Unl
Heat Index: 64°   Visibility: 10mi
Dew Point: 50°   Wind: 26mph
Humidity: 59%   Direction: 140°SE
Pressure: 29.68"   Gusts: 39mph
Location:  40.33°N, 124.29°W
Report Text: KFOT 250610Z AUTO 14023G34KT 10SM SCT043 18/10 A2968 RMK AO1
Loading
Personal Weather Stations






























Interactive Weather Map
Tropical Storm Tracking
New forecast layout! Learn more

10-Day Weather Forecast

Advertisements
Track Severe Weather on mobile